Schleswig Jagel, Germany

7:35 PM CEST on August 30, 2015 (GMT +0200)
Gluecksburg | | Change Station
CLOSE
Current Station
Airport
Location: Gluecksburg,
Elevation: 108 ft
Nearby Weather Stations

Elev 108 ft 54.83 °N, 9.51 °E | Updated 15 minutes ago

Mostly Cloudy
Mostly Cloudy
64 °F
Feels Like 64 °F
N
7
Wind Variable Wind from NE

Today
High -- | Low -- °F
--% Chance of Precip.
Yesterday
High -- | Low -- °F
Precip. -- in
6:24 AM 8:19 PM
Full, 99% visible
Pressure 30.09 in
Visibility 6.2 miles
Clouds Scattered Clouds 3500 ft
Mostly Cloudy 6000 ft
Dew Point 57 °F
Humidity 77%
Rainfall 0.00 in
Snow Depth Not available.
UV 0 out of 12
Pollen Not available.
Air Quality Not available.
Flu Activity Not available.
METAR ETGG 301720Z 04006KT 9999 SCT035 BKN060 18/14 Q1019 BLU
Pressure 30.09 in
Visibility 6.2 miles
Clouds Scattered Clouds 3500 ft
Mostly Cloudy 6000 ft
Dew Point 57 °F
Humidity 77%
Rainfall 0.00 in
Snow Depth Not available.
UV 0 out of 12
Pollen Not available.
Air Quality Not available.
Flu Activity Not available.
METAR ETGG 301720Z 04006KT 9999 SCT035 BKN060 18/14 Q1019 BLU

10-Day Weather Forecast

×

Almanac

Astronomy

Aug. 30, 2015 Rise Set
Actual Time
Civil Twilight
Nautical Twilight
Astronomical Twilight
Moon
Length of Visible Light
Length of Day
Tomorrow will be .
, % of the Moon is Illuminated

Today's Extremes

Country Highs Country Lows

Community

WunderPhotos

Upload Photos

1,851,014 photos uploaded!

WunderBlogs® & News

Nearby

Air Quality

  Air Quality AQ Index Pollutant
Not available.

Snow Depth

Station Depth Elevation

Earthquake Activity

City Distance Mag. Time & Date
Minimum magnitude displayed is 2.5.

Coastal Water Temperatures

Place Temperature

Stations

Nearby Weather Stations

Station Location Temp. Windchill Dew Point Humidity Wind Precip. Elev Updated Type